Lafayette Regional Airport
KLFT : rendu visible

Aérodrome :











RETROUVEZ-NOUS SUR...

 
LOGIN :

S'inscrire | Disclaimer

   EN    FR    IT 

 









Légende :    VFR   VFR Marginal   IFR   IFR Intensif   IFR Très Intensif
Visi : 
Plafond : 
>= 8 km
>= 3000ft
5 à 8 km
1000 à 3000 ft
1500m à 5 km
500 à 1000 ft
800 à 1500m
200 à 500 ft
< 800m
< 200 ft
Symboles :   Orages  Brouillard  Fortes neiges  Fortes précipitations  Vent > 20 kt







- Altitude de l'aérodrome : 42 ft
- Code IATA : LFT


KLFT - Lafayette Regional

DERNIER METAR :
  • 181253Z 03005KT 10SM CLR 08/04 A3027 RMK AO2 SLP249 T00830044

METARs EXPIRÉS :
  • 181153Z 03007KT 10SM CLR 07/04 A3023 RMK AO2 SLP238 T00720039 10083 20056 55000
  • 181053Z 02003KT 10SM CLR 07/03 A3024 RMK AO2 SLP239 T00670033

TAF KLFT
Valide du 18 à 12h jusqu'au 19 à 12h UTC


181120Z 1812/1912 VRB04KT P6SM SCT250
FM181600 05008KT P6SM BKN250
FM190000 VRB03KT P6SM SCT250
FIR KZHU / Amérique du Nord



MET'MAP, la Météo Aéronautique d'un coup d'oeil ! - Copyright ORBIFLY Décembre 2007 - Disclaimer

ORBIFLY MET'MAP TEAM :

Programmation & Développement : Alexandra Zaïnal
Conception & Développement : Baudouin d'Aumeries
Co-Programmation & Développement : Marc-Olivier Méhu
Soutien technique & logistique : Manuel Goepfert

Contact : metmap@orbifly.com




SOURCES & CREDITS :

   NOAA       Earth
Advisory